sensor_id;sensor_type;location;lat;lon;timestamp;P1;durP1;ratioP1;P2;durP2;ratioP2
16137;SDS011;8174;43.550;5.206;2022-11-25T00:02:22;22.33;;;8.80;;
16137;SDS011;8174;43.550;5.206;2022-11-25T00:04:51;26.77;;;10.23;;
16137;SDS011;8174;43.550;5.206;2022-11-25T00:07:19;38.20;;;10.23;;
16137;SDS011;8174;43.550;5.206;2022-11-25T00:09:46;26.83;;;10.10;;
16137;SDS011;8174;43.550;5.206;2022-11-25T00:12:14;32.33;;;10.27;;
16137;SDS011;8174;43.550;5.206;2022-11-25T00:14:41;40.97;;;11.83;;
16137;SDS011;8174;43.550;5.206;2022-11-25T00:17:09;38.73;;;11.33;;
16137;SDS011;8174;43.550;5.206;2022-11-25T00:19:36;41.73;;;12.50;;
16137;SDS011;8174;43.550;5.206;2022-11-25T00:22:05;30.40;;;10.33;;
16137;SDS011;8174;43.550;5.206;2022-11-25T00:24:33;32.20;;;10.40;;
16137;SDS011;8174;43.550;5.206;2022-11-25T00:27:00;29.43;;;9.33;;
16137;SDS011;8174;43.550;5.206;2022-11-25T00:29:29;28.10;;;9.93;;
16137;SDS011;8174;43.550;5.206;2022-11-25T00:31:56;20.43;;;8.27;;
16137;SDS011;8174;43.550;5.206;2022-11-25T00:34:24;28.37;;;9.37;;
16137;SDS011;8174;43.550;5.206;2022-11-25T00:36:52;27.90;;;9.53;;
16137;SDS011;8174;43.550;5.206;2022-11-25T00:39:20;24.10;;;8.47;;
16137;SDS011;8174;43.550;5.206;2022-11-25T00:41:50;23.43;;;9.17;;
16137;SDS011;8174;43.550;5.206;2022-11-25T00:44:34;23.03;;;8.20;;
16137;SDS011;8174;43.550;5.206;2022-11-25T00:47:04;26.67;;;9.63;;
16137;SDS011;8174;43.550;5.206;2022-11-25T00:49:32;22.73;;;7.77;;
16137;SDS011;8174;43.550;5.206;2022-11-25T00:52:00;24.33;;;7.90;;
16137;SDS011;8174;43.550;5.206;2022-11-25T00:54:29;29.33;;;9.73;;
16137;SDS011;8174;43.550;5.206;2022-11-25T00:56:57;23.73;;;9.00;;
16137;SDS011;8174;43.550;5.206;2022-11-25T00:59:25;15.40;;;4.67;;
16137;SDS011;8174;43.550;5.206;2022-11-25T01:01:53;20.60;;;6.27;;
16137;SDS011;8174;43.550;5.206;2022-11-25T01:04:21;19.63;;;8.03;;
16137;SDS011;8174;43.550;5.206;2022-11-25T01:09:23;20.23;;;6.83;;
16137;SDS011;8174;43.550;5.206;2022-11-25T01:11:52;22.53;;;5.80;;
16137;SDS011;8174;43.550;5.206;2022-11-25T01:14:20;21.30;;;6.80;;
16137;SDS011;8174;43.550;5.206;2022-11-25T01:16:48;18.43;;;6.77;;
16137;SDS011;8174;43.550;5.206;2022-11-25T01:19:15;24.57;;;6.47;;
16137;SDS011;8174;43.550;5.206;2022-11-25T01:21:43;20.27;;;6.13;;
16137;SDS011;8174;43.550;5.206;2022-11-25T01:24:11;25.43;;;7.03;;
16137;SDS011;8174;43.550;5.206;2022-11-25T01:26:39;21.30;;;5.67;;
16137;SDS011;8174;43.550;5.206;2022-11-25T01:29:11;18.80;;;5.90;;
16137;SDS011;8174;43.550;5.206;2022-11-25T01:31:39;18.77;;;5.70;;
16137;SDS011;8174;43.550;5.206;2022-11-25T01:34:09;19.43;;;6.00;;
16137;SDS011;8174;43.550;5.206;2022-11-25T01:36:38;22.87;;;5.63;;
16137;SDS011;8174;43.550;5.206;2022-11-25T01:39:06;20.37;;;5.50;;
16137;SDS011;8174;43.550;5.206;2022-11-25T01:41:34;22.47;;;6.07;;
16137;SDS011;8174;43.550;5.206;2022-11-25T01:44:05;23.30;;;6.37;;
16137;SDS011;8174;43.550;5.206;2022-11-25T01:46:38;23.27;;;5.87;;
16137;SDS011;8174;43.550;5.206;2022-11-25T01:49:10;19.20;;;5.80;;
16137;SDS011;8174;43.550;5.206;2022-11-25T01:51:40;19.87;;;6.23;;
16137;SDS011;8174;43.550;5.206;2022-11-25T01:54:08;17.03;;;5.43;;
16137;SDS011;8174;43.550;5.206;2022-11-25T01:56:38;14.90;;;5.90;;
16137;SDS011;8174;43.550;5.206;2022-11-25T01:59:09;18.50;;;5.87;;
16137;SDS011;8174;43.550;5.206;2022-11-25T02:01:38;20.20;;;5.73;;
16137;SDS011;8174;43.550;5.206;2022-11-25T02:04:05;22.53;;;6.10;;
16137;SDS011;8174;43.550;5.206;2022-11-25T02:06:34;25.97;;;5.50;;
16137;SDS011;8174;43.550;5.206;2022-11-25T02:09:03;24.97;;;5.20;;
16137;SDS011;8174;43.550;5.206;2022-11-25T02:11:30;20.20;;;5.20;;
16137;SDS011;8174;43.550;5.206;2022-11-25T02:13:59;17.20;;;4.53;;
16137;SDS011;8174;43.550;5.206;2022-11-25T02:16:26;16.93;;;4.53;;
16137;SDS011;8174;43.550;5.206;2022-11-25T02:18:55;15.77;;;4.90;;
16137;SDS011;8174;43.550;5.206;2022-11-25T02:21:24;18.27;;;4.73;;
16137;SDS011;8174;43.550;5.206;2022-11-25T02:23:53;23.13;;;5.33;;
16137;SDS011;8174;43.550;5.206;2022-11-25T02:26:24;14.30;;;4.73;;
16137;SDS011;8174;43.550;5.206;2022-11-25T02:28:51;17.27;;;4.93;;
16137;SDS011;8174;43.550;5.206;2022-11-25T02:31:19;19.00;;;5.37;;
16137;SDS011;8174;43.550;5.206;2022-11-25T02:33:47;15.03;;;4.87;;
16137;SDS011;8174;43.550;5.206;2022-11-25T02:36:15;17.40;;;5.13;;
16137;SDS011;8174;43.550;5.206;2022-11-25T02:38:44;15.43;;;4.77;;
16137;SDS011;8174;43.550;5.206;2022-11-25T02:41:13;19.47;;;5.30;;
16137;SDS011;8174;43.550;5.206;2022-11-25T02:43:44;16.47;;;4.70;;
16137;SDS011;8174;43.550;5.206;2022-11-25T02:46:11;15.50;;;4.90;;
16137;SDS011;8174;43.550;5.206;2022-11-25T02:48:40;17.17;;;5.43;;
16137;SDS011;8174;43.550;5.206;2022-11-25T02:51:09;20.03;;;5.60;;
16137;SDS011;8174;43.550;5.206;2022-11-25T02:53:37;21.87;;;5.37;;
16137;SDS011;8174;43.550;5.206;2022-11-25T02:56:05;19.27;;;5.30;;
16137;SDS011;8174;43.550;5.206;2022-11-25T02:58:33;13.37;;;5.33;;
16137;SDS011;8174;43.550;5.206;2022-11-25T03:01:02;14.67;;;4.93;;
16137;SDS011;8174;43.550;5.206;2022-11-25T03:03:29;18.43;;;5.23;;
16137;SDS011;8174;43.550;5.206;2022-11-25T03:05:57;18.43;;;5.60;;
16137;SDS011;8174;43.550;5.206;2022-11-25T03:08:24;19.67;;;5.47;;
16137;SDS011;8174;43.550;5.206;2022-11-25T03:10:52;19.07;;;5.53;;
16137;SDS011;8174;43.550;5.206;2022-11-25T03:13:19;21.30;;;7.40;;
16137;SDS011;8174;43.550;5.206;2022-11-25T03:15:47;18.27;;;6.10;;
16137;SDS011;8174;43.550;5.206;2022-11-25T03:18:15;15.63;;;4.80;;
16137;SDS011;8174;43.550;5.206;2022-11-25T03:20:43;18.13;;;5.43;;
16137;SDS011;8174;43.550;5.206;2022-11-25T03:23:10;18.30;;;5.10;;
16137;SDS011;8174;43.550;5.206;2022-11-25T03:25:38;21.37;;;5.87;;
16137;SDS011;8174;43.550;5.206;2022-11-25T03:28:05;20.53;;;5.50;;
16137;SDS011;8174;43.550;5.206;2022-11-25T03:30:33;20.50;;;4.53;;
16137;SDS011;8174;43.550;5.206;2022-11-25T03:33:00;19.23;;;5.27;;
16137;SDS011;8174;43.550;5.206;2022-11-25T03:35:30;19.33;;;4.87;;
16137;SDS011;8174;43.550;5.206;2022-11-25T03:37:57;22.73;;;5.40;;
16137;SDS011;8174;43.550;5.206;2022-11-25T03:40:25;18.43;;;4.63;;
16137;SDS011;8174;43.550;5.206;2022-11-25T03:42:52;16.90;;;4.87;;
16137;SDS011;8174;43.550;5.206;2022-11-25T03:45:20;20.70;;;5.10;;
16137;SDS011;8174;43.550;5.206;2022-11-25T03:47:47;16.63;;;5.00;;
16137;SDS011;8174;43.550;5.206;2022-11-25T03:50:15;18.73;;;5.47;;
16137;SDS011;8174;43.550;5.206;2022-11-25T03:52:44;17.03;;;5.20;;
16137;SDS011;8174;43.550;5.206;2022-11-25T03:55:11;14.73;;;4.97;;
16137;SDS011;8174;43.550;5.206;2022-11-25T03:57:39;17.63;;;5.03;;
16137;SDS011;8174;43.550;5.206;2022-11-25T04:00:07;19.10;;;5.83;;
16137;SDS011;8174;43.550;5.206;2022-11-25T04:02:35;23.17;;;6.70;;
16137;SDS011;8174;43.550;5.206;2022-11-25T04:05:02;20.70;;;6.33;;
16137;SDS011;8174;43.550;5.206;2022-11-25T04:07:30;18.17;;;5.93;;
16137;SDS011;8174;43.550;5.206;2022-11-25T04:09:59;21.50;;;6.20;;
16137;SDS011;8174;43.550;5.206;2022-11-25T04:12:26;21.03;;;6.00;;
16137;SDS011;8174;43.550;5.206;2022-11-25T04:15:11;19.47;;;6.23;;
16137;SDS011;8174;43.550;5.206;2022-11-25T04:17:39;20.90;;;5.43;;
16137;SDS011;8174;43.550;5.206;2022-11-25T04:20:07;13.57;;;4.57;;
16137;SDS011;8174;43.550;5.206;2022-11-25T04:22:35;14.20;;;4.67;;
16137;SDS011;8174;43.550;5.206;2022-11-25T04:25:04;19.67;;;4.53;;
16137;SDS011;8174;43.550;5.206;2022-11-25T04:27:32;26.33;;;5.20;;
16137;SDS011;8174;43.550;5.206;2022-11-25T04:29:59;18.43;;;4.87;;
16137;SDS011;8174;43.550;5.206;2022-11-25T04:32:27;20.17;;;4.80;;
16137;SDS011;8174;43.550;5.206;2022-11-25T04:34:54;19.67;;;4.90;;
16137;SDS011;8174;43.550;5.206;2022-11-25T04:37:22;16.10;;;4.53;;
16137;SDS011;8174;43.550;5.206;2022-11-25T04:39:49;18.80;;;5.00;;
16137;SDS011;8174;43.550;5.206;2022-11-25T04:42:18;18.87;;;5.20;;
16137;SDS011;8174;43.550;5.206;2022-11-25T04:44:58;19.60;;;4.73;;
16137;SDS011;8174;43.550;5.206;2022-11-25T04:47:26;16.40;;;4.73;;
16137;SDS011;8174;43.550;5.206;2022-11-25T04:49:54;16.57;;;4.60;;
16137;SDS011;8174;43.550;5.206;2022-11-25T04:52:22;12.00;;;4.60;;
16137;SDS011;8174;43.550;5.206;2022-11-25T04:54:49;16.53;;;5.20;;
16137;SDS011;8174;43.550;5.206;2022-11-25T04:57:18;16.30;;;5.20;;
16137;SDS011;8174;43.550;5.206;2022-11-25T04:59:46;10.03;;;4.10;;
16137;SDS011;8174;43.550;5.206;2022-11-25T05:02:14;16.10;;;4.90;;
16137;SDS011;8174;43.550;5.206;2022-11-25T05:04:42;14.40;;;4.47;;
16137;SDS011;8174;43.550;5.206;2022-11-25T05:07:10;12.50;;;4.70;;
16137;SDS011;8174;43.550;5.206;2022-11-25T05:09:38;12.97;;;4.37;;
16137;SDS011;8174;43.550;5.206;2022-11-25T05:12:06;14.60;;;4.33;;
16137;SDS011;8174;43.550;5.206;2022-11-25T05:14:35;20.57;;;6.40;;
16137;SDS011;8174;43.550;5.206;2022-11-25T05:23:14;10.93;;;4.00;;
16137;SDS011;8174;43.550;5.206;2022-11-25T05:25:52;14.47;;;4.27;;
16137;SDS011;8174;43.550;5.206;2022-11-25T05:28:24;14.67;;;4.07;;
16137;SDS011;8174;43.550;5.206;2022-11-25T05:30:53;11.60;;;4.50;;
16137;SDS011;8174;43.550;5.206;2022-11-25T05:33:21;9.57;;;3.87;;
16137;SDS011;8174;43.550;5.206;2022-11-25T05:35:55;16.20;;;4.73;;
16137;SDS011;8174;43.550;5.206;2022-11-25T05:38:23;14.07;;;4.57;;
16137;SDS011;8174;43.550;5.206;2022-11-25T05:40:50;19.40;;;4.90;;
16137;SDS011;8174;43.550;5.206;2022-11-25T05:43:18;16.50;;;4.40;;
16137;SDS011;8174;43.550;5.206;2022-11-25T05:45:46;15.27;;;5.40;;
16137;SDS011;8174;43.550;5.206;2022-11-25T05:48:15;16.47;;;4.80;;
16137;SDS011;8174;43.550;5.206;2022-11-25T05:50:42;24.80;;;5.43;;
16137;SDS011;8174;43.550;5.206;2022-11-25T05:53:10;22.97;;;6.03;;
16137;SDS011;8174;43.550;5.206;2022-11-25T05:55:38;24.70;;;5.23;;
16137;SDS011;8174;43.550;5.206;2022-11-25T05:58:06;23.23;;;5.50;;
16137;SDS011;8174;43.550;5.206;2022-11-25T06:00:33;24.77;;;7.00;;
16137;SDS011;8174;43.550;5.206;2022-11-25T06:03:01;26.37;;;7.23;;
16137;SDS011;8174;43.550;5.206;2022-11-25T06:05:49;20.43;;;6.30;;
16137;SDS011;8174;43.550;5.206;2022-11-25T06:08:17;26.43;;;6.43;;
16137;SDS011;8174;43.550;5.206;2022-11-25T06:10:45;20.87;;;7.87;;
16137;SDS011;8174;43.550;5.206;2022-11-25T06:13:13;22.57;;;8.10;;
16137;SDS011;8174;43.550;5.206;2022-11-25T06:16:05;22.47;;;7.57;;
16137;SDS011;8174;43.550;5.206;2022-11-25T06:18:33;22.43;;;8.67;;
16137;SDS011;8174;43.550;5.206;2022-11-25T06:21:02;22.20;;;8.77;;
16137;SDS011;8174;43.550;5.206;2022-11-25T06:23:30;23.33;;;9.00;;
16137;SDS011;8174;43.550;5.206;2022-11-25T06:26:01;23.57;;;8.53;;
16137;SDS011;8174;43.550;5.206;2022-11-25T06:28:29;22.97;;;11.57;;
16137;SDS011;8174;43.550;5.206;2022-11-25T06:31:02;28.17;;;10.57;;
16137;SDS011;8174;43.550;5.206;2022-11-25T06:33:30;19.33;;;9.23;;
16137;SDS011;8174;43.550;5.206;2022-11-25T06:35:58;25.23;;;9.53;;
16137;SDS011;8174;43.550;5.206;2022-11-25T07:24:53;40.37;;;15.20;;
16137;SDS011;8174;43.550;5.206;2022-11-25T07:27:20;29.50;;;12.43;;
16137;SDS011;8174;43.550;5.206;2022-11-25T07:29:48;27.23;;;11.37;;
16137;SDS011;8174;43.550;5.206;2022-11-25T07:32:15;37.93;;;14.70;;
16137;SDS011;8174;43.550;5.206;2022-11-25T07:34:43;33.33;;;15.97;;
16137;SDS011;8174;43.550;5.206;2022-11-25T07:37:10;30.20;;;14.90;;
16137;SDS011;8174;43.550;5.206;2022-11-25T07:39:38;25.43;;;10.77;;
16137;SDS011;8174;43.550;5.206;2022-11-25T07:42:07;34.40;;;10.43;;
16137;SDS011;8174;43.550;5.206;2022-11-25T07:44:34;23.20;;;10.63;;
16137;SDS011;8174;43.550;5.206;2022-11-25T07:47:04;28.17;;;10.60;;
16137;SDS011;8174;43.550;5.206;2022-11-25T07:49:33;24.43;;;8.40;;
16137;SDS011;8174;43.550;5.206;2022-11-25T07:52:01;24.23;;;8.93;;
16137;SDS011;8174;43.550;5.206;2022-11-25T07:54:28;21.50;;;8.30;;
16137;SDS011;8174;43.550;5.206;2022-11-25T07:56:57;23.13;;;8.97;;
16137;SDS011;8174;43.550;5.206;2022-11-25T07:59:26;28.83;;;10.93;;
16137;SDS011;8174;43.550;5.206;2022-11-25T08:01:54;28.90;;;10.70;;
16137;SDS011;8174;43.550;5.206;2022-11-25T08:04:21;26.77;;;9.87;;
16137;SDS011;8174;43.550;5.206;2022-11-25T08:06:49;26.17;;;9.50;;
16137;SDS011;8174;43.550;5.206;2022-11-25T08:09:17;21.53;;;8.63;;
16137;SDS011;8174;43.550;5.206;2022-11-25T08:11:45;20.77;;;9.90;;
16137;SDS011;8174;43.550;5.206;2022-11-25T08:14:13;24.90;;;10.57;;
16137;SDS011;8174;43.550;5.206;2022-11-25T08:16:42;21.83;;;8.80;;
16137;SDS011;8174;43.550;5.206;2022-11-25T08:19:11;26.63;;;8.73;;
16137;SDS011;8174;43.550;5.206;2022-11-25T08:21:41;25.73;;;8.47;;
16137;SDS011;8174;43.550;5.206;2022-11-25T08:24:10;22.03;;;8.17;;
16137;SDS011;8174;43.550;5.206;2022-11-25T08:26:42;17.03;;;7.60;;
16137;SDS011;8174;43.550;5.206;2022-11-25T08:29:10;18.70;;;7.03;;
16137;SDS011;8174;43.550;5.206;2022-11-25T08:31:39;28.93;;;7.43;;
16137;SDS011;8174;43.550;5.206;2022-11-25T08:34:10;20.93;;;7.07;;
16137;SDS011;8174;43.550;5.206;2022-11-25T08:36:42;23.50;;;7.50;;
16137;SDS011;8174;43.550;5.206;2022-11-25T08:39:10;17.03;;;6.23;;
16137;SDS011;8174;43.550;5.206;2022-11-25T08:41:38;28.43;;;6.87;;
16137;SDS011;8174;43.550;5.206;2022-11-25T08:44:07;18.03;;;5.83;;
16137;SDS011;8174;43.550;5.206;2022-11-25T08:46:37;22.37;;;7.37;;
16137;SDS011;8174;43.550;5.206;2022-11-25T08:49:06;30.30;;;8.03;;
16137;SDS011;8174;43.550;5.206;2022-11-25T08:51:35;22.13;;;7.37;;
16137;SDS011;8174;43.550;5.206;2022-11-25T08:54:03;16.80;;;8.00;;
16137;SDS011;8174;43.550;5.206;2022-11-25T08:56:31;16.60;;;5.90;;
16137;SDS011;8174;43.550;5.206;2022-11-25T08:58:59;20.57;;;6.50;;
16137;SDS011;8174;43.550;5.206;2022-11-25T09:01:26;13.43;;;5.50;;
16137;SDS011;8174;43.550;5.206;2022-11-25T09:03:54;16.37;;;5.27;;
16137;SDS011;8174;43.550;5.206;2022-11-25T09:06:23;14.10;;;4.87;;
16137;SDS011;8174;43.550;5.206;2022-11-25T09:08:52;15.87;;;4.67;;
16137;SDS011;8174;43.550;5.206;2022-11-25T09:11:20;15.43;;;5.10;;
16137;SDS011;8174;43.550;5.206;2022-11-25T09:13:48;17.47;;;5.23;;
16137;SDS011;8174;43.550;5.206;2022-11-25T09:16:15;15.00;;;5.63;;
16137;SDS011;8174;43.550;5.206;2022-11-25T09:18:42;17.00;;;5.53;;
16137;SDS011;8174;43.550;5.206;2022-11-25T09:21:11;14.40;;;5.40;;
16137;SDS011;8174;43.550;5.206;2022-11-25T09:23:38;14.23;;;4.57;;
16137;SDS011;8174;43.550;5.206;2022-11-25T09:26:09;14.63;;;4.70;;
16137;SDS011;8174;43.550;5.206;2022-11-25T09:28:40;13.60;;;5.40;;
16137;SDS011;8174;43.550;5.206;2022-11-25T09:31:10;13.13;;;4.90;;
16137;SDS011;8174;43.550;5.206;2022-11-25T09:33:38;10.70;;;4.70;;
16137;SDS011;8174;43.550;5.206;2022-11-25T09:36:06;12.57;;;4.30;;
16137;SDS011;8174;43.550;5.206;2022-11-25T09:38:34;14.83;;;4.90;;
16137;SDS011;8174;43.550;5.206;2022-11-25T09:41:02;16.00;;;6.20;;
16137;SDS011;8174;43.550;5.206;2022-11-25T09:43:37;12.43;;;4.27;;
16137;SDS011;8174;43.550;5.206;2022-11-25T09:49:22;16.30;;;3.90;;
16137;SDS011;8174;43.550;5.206;2022-11-25T09:51:55;10.97;;;3.87;;
16137;SDS011;8174;43.550;5.206;2022-11-25T09:54:26;15.50;;;4.33;;
16137;SDS011;8174;43.550;5.206;2022-11-25T09:56:58;12.00;;;3.33;;
16137;SDS011;8174;43.550;5.206;2022-11-25T09:59:30;15.93;;;3.80;;
16137;SDS011;8174;43.550;5.206;2022-11-25T10:02:01;9.67;;;3.70;;
16137;SDS011;8174;43.550;5.206;2022-11-25T10:04:31;11.70;;;2.73;;
16137;SDS011;8174;43.550;5.206;2022-11-25T10:07:01;10.80;;;2.90;;
16137;SDS011;8174;43.550;5.206;2022-11-25T10:09:30;11.17;;;3.13;;
16137;SDS011;8174;43.550;5.206;2022-11-25T10:11:59;11.63;;;3.00;;
16137;SDS011;8174;43.550;5.206;2022-11-25T10:14:31;146.57;;;13.37;;
16137;SDS011;8174;43.550;5.206;2022-11-25T10:17:03;98.73;;;10.23;;
16137;SDS011;8174;43.550;5.206;2022-11-25T10:19:35;52.13;;;6.53;;
16137;SDS011;8174;43.550;5.206;2022-11-25T10:22:09;114.73;;;11.47;;
16137;SDS011;8174;43.550;5.206;2022-11-25T10:24:39;118.53;;;11.30;;
16137;SDS011;8174;43.550;5.206;2022-11-25T10:27:07;64.70;;;8.33;;
16137;SDS011;8174;43.550;5.206;2022-11-25T10:29:42;27.23;;;5.07;;
16137;SDS011;8174;43.550;5.206;2022-11-25T10:32:18;38.30;;;5.17;;
16137;SDS011;8174;43.550;5.206;2022-11-25T10:34:47;13.83;;;3.37;;
16137;SDS011;8174;43.550;5.206;2022-11-25T10:37:18;14.00;;;3.50;;
16137;SDS011;8174;43.550;5.206;2022-11-25T10:39:48;15.03;;;3.20;;
16137;SDS011;8174;43.550;5.206;2022-11-25T10:42:17;7.37;;;2.73;;
16137;SDS011;8174;43.550;5.206;2022-11-25T10:44:47;10.03;;;3.03;;
16137;SDS011;8174;43.550;5.206;2022-11-25T10:47:19;12.30;;;2.70;;
16137;SDS011;8174;43.550;5.206;2022-11-25T10:49:52;7.80;;;3.07;;
16137;SDS011;8174;43.550;5.206;2022-11-25T10:52:25;9.83;;;3.07;;
16137;SDS011;8174;43.550;5.206;2022-11-25T10:54:54;8.07;;;2.60;;
16137;SDS011;8174;43.550;5.206;2022-11-25T10:57:26;10.07;;;2.97;;
16137;SDS011;8174;43.550;5.206;2022-11-25T10:59:56;10.13;;;2.77;;
16137;SDS011;8174;43.550;5.206;2022-11-25T11:02:24;10.63;;;2.90;;
16137;SDS011;8174;43.550;5.206;2022-11-25T11:04:56;7.03;;;3.13;;
16137;SDS011;8174;43.550;5.206;2022-11-25T11:07:24;13.17;;;3.10;;
16137;SDS011;8174;43.550;5.206;2022-11-25T11:09:52;10.00;;;2.90;;
16137;SDS011;8174;43.550;5.206;2022-11-25T11:12:20;32.70;;;4.67;;
16137;SDS011;8174;43.550;5.206;2022-11-25T11:14:48;14.93;;;3.63;;
16137;SDS011;8174;43.550;5.206;2022-11-25T11:20:18;14.00;;;3.33;;
16137;SDS011;8174;43.550;5.206;2022-11-25T11:22:48;12.07;;;3.73;;
16137;SDS011;8174;43.550;5.206;2022-11-25T11:25:29;11.57;;;2.90;;
16137;SDS011;8174;43.550;5.206;2022-11-25T11:27:58;8.13;;;3.00;;
16137;SDS011;8174;43.550;5.206;2022-11-25T11:30:27;11.07;;;3.90;;
16137;SDS011;8174;43.550;5.206;2022-11-25T11:32:59;9.43;;;3.40;;
16137;SDS011;8174;43.550;5.206;2022-11-25T11:35:40;11.80;;;4.17;;
16137;SDS011;8174;43.550;5.206;2022-11-25T11:38:12;12.23;;;3.63;;
16137;SDS011;8174;43.550;5.206;2022-11-25T11:40:45;7.90;;;3.40;;
16137;SDS011;8174;43.550;5.206;2022-11-25T11:43:31;10.13;;;3.67;;
16137;SDS011;8174;43.550;5.206;2022-11-25T11:46:07;15.83;;;4.10;;
16137;SDS011;8174;43.550;5.206;2022-11-25T11:48:38;12.30;;;4.27;;
16137;SDS011;8174;43.550;5.206;2022-11-25T11:51:11;11.93;;;4.10;;
16137;SDS011;8174;43.550;5.206;2022-11-25T11:53:42;14.43;;;4.23;;
16137;SDS011;8174;43.550;5.206;2022-11-25T11:56:12;9.10;;;3.70;;
16137;SDS011;8174;43.550;5.206;2022-11-25T11:58:46;7.23;;;3.20;;
16137;SDS011;8174;43.550;5.206;2022-11-25T12:01:22;8.23;;;3.30;;
16137;SDS011;8174;43.550;5.206;2022-11-25T12:03:54;10.23;;;3.70;;
16137;SDS011;8174;43.550;5.206;2022-11-25T12:06:24;7.03;;;2.90;;
16137;SDS011;8174;43.550;5.206;2022-11-25T12:08:53;11.07;;;3.30;;
16137;SDS011;8174;43.550;5.206;2022-11-25T12:11:24;7.47;;;3.03;;
16137;SDS011;8174;43.550;5.206;2022-11-25T12:13:54;8.63;;;2.87;;
16137;SDS011;8174;43.550;5.206;2022-11-25T12:16:26;6.13;;;2.83;;
16137;SDS011;8174;43.550;5.206;2022-11-25T12:18:58;5.97;;;3.03;;
16137;SDS011;8174;43.550;5.206;2022-11-25T12:21:34;6.17;;;2.83;;
16137;SDS011;8174;43.550;5.206;2022-11-25T12:24:03;11.97;;;3.60;;
16137;SDS011;8174;43.550;5.206;2022-11-25T12:26:35;6.03;;;2.87;;
16137;SDS011;8174;43.550;5.206;2022-11-25T12:29:06;8.07;;;3.27;;
16137;SDS011;8174;43.550;5.206;2022-11-25T12:31:36;7.90;;;3.07;;
16137;SDS011;8174;43.550;5.206;2022-11-25T12:34:06;15.83;;;3.87;;
16137;SDS011;8174;43.550;5.206;2022-11-25T12:36:38;8.83;;;3.30;;
16137;SDS011;8174;43.550;5.206;2022-11-25T12:39:10;7.73;;;3.20;;
16137;SDS011;8174;43.550;5.206;2022-11-25T12:41:42;5.63;;;3.30;;
16137;SDS011;8174;43.550;5.206;2022-11-25T12:44:12;9.17;;;3.90;;
16137;SDS011;8174;43.550;5.206;2022-11-25T12:46:43;10.40;;;4.53;;
16137;SDS011;8174;43.550;5.206;2022-11-25T12:49:13;10.50;;;5.30;;
16137;SDS011;8174;43.550;5.206;2022-11-25T12:51:55;10.53;;;4.23;;
16137;SDS011;8174;43.550;5.206;2022-11-25T12:54:29;9.43;;;3.80;;
16137;SDS011;8174;43.550;5.206;2022-11-25T12:57:10;8.70;;;4.17;;
16137;SDS011;8174;43.550;5.206;2022-11-25T12:59:51;13.40;;;4.57;;
16137;SDS011;8174;43.550;5.206;2022-11-25T13:05:15;7.90;;;3.47;;
16137;SDS011;8174;43.550;5.206;2022-11-25T13:07:50;7.67;;;3.43;;
16137;SDS011;8174;43.550;5.206;2022-11-25T13:10:31;6.90;;;3.10;;
16137;SDS011;8174;43.550;5.206;2022-11-25T13:13:11;8.77;;;3.13;;
16137;SDS011;8174;43.550;5.206;2022-11-25T13:15:41;8.10;;;3.17;;
16137;SDS011;8174;43.550;5.206;2022-11-25T13:18:10;10.20;;;3.17;;
16137;SDS011;8174;43.550;5.206;2022-11-25T13:20:43;9.73;;;3.13;;
16137;SDS011;8174;43.550;5.206;2022-11-25T13:23:22;8.07;;;2.53;;
16137;SDS011;8174;43.550;5.206;2022-11-25T13:25:51;8.63;;;2.93;;
16137;SDS011;8174;43.550;5.206;2022-11-25T13:28:28;12.00;;;3.80;;
16137;SDS011;8174;43.550;5.206;2022-11-25T13:33:56;5.47;;;2.50;;
16137;SDS011;8174;43.550;5.206;2022-11-25T13:36:41;7.67;;;3.03;;
16137;SDS011;8174;43.550;5.206;2022-11-25T13:39:13;11.10;;;4.43;;
16137;SDS011;8174;43.550;5.206;2022-11-25T13:41:43;14.53;;;5.03;;
16137;SDS011;8174;43.550;5.206;2022-11-25T13:44:19;9.30;;;3.27;;
16137;SDS011;8174;43.550;5.206;2022-11-25T13:46:47;13.20;;;3.40;;
16137;SDS011;8174;43.550;5.206;2022-11-25T13:49:20;9.73;;;3.13;;
16137;SDS011;8174;43.550;5.206;2022-11-25T13:51:48;10.17;;;3.27;;
16137;SDS011;8174;43.550;5.206;2022-11-25T13:54:18;6.93;;;2.10;;
16137;SDS011;8174;43.550;5.206;2022-11-25T13:56:57;7.23;;;2.43;;
16137;SDS011;8174;43.550;5.206;2022-11-25T13:59:35;6.50;;;2.53;;
16137;SDS011;8174;43.550;5.206;2022-11-25T14:04:46;8.60;;;2.63;;
16137;SDS011;8174;43.550;5.206;2022-11-25T14:07:20;5.57;;;2.23;;
16137;SDS011;8174;43.550;5.206;2022-11-25T14:09:59;4.90;;;1.60;;
16137;SDS011;8174;43.550;5.206;2022-11-25T14:12:37;5.20;;;2.23;;
16137;SDS011;8174;43.550;5.206;2022-11-25T14:15:14;6.00;;;2.07;;
16137;SDS011;8174;43.550;5.206;2022-11-25T14:17:50;5.50;;;2.70;;
16137;SDS011;8174;43.550;5.206;2022-11-25T14:20:25;20.27;;;3.73;;
16137;SDS011;8174;43.550;5.206;2022-11-25T14:25:45;6.87;;;2.70;;
16137;SDS011;8174;43.550;5.206;2022-11-25T14:28:17;6.87;;;2.40;;
16137;SDS011;8174;43.550;5.206;2022-11-25T14:30:48;9.60;;;2.70;;
16137;SDS011;8174;43.550;5.206;2022-11-25T14:33:17;10.03;;;2.43;;
16137;SDS011;8174;43.550;5.206;2022-11-25T14:35:47;5.23;;;2.40;;
16137;SDS011;8174;43.550;5.206;2022-11-25T14:38:16;5.23;;;2.30;;
16137;SDS011;8174;43.550;5.206;2022-11-25T14:40:48;9.40;;;2.80;;
16137;SDS011;8174;43.550;5.206;2022-11-25T14:43:18;6.33;;;2.63;;
16137;SDS011;8174;43.550;5.206;2022-11-25T14:45:47;8.33;;;3.10;;
16137;SDS011;8174;43.550;5.206;2022-11-25T14:48:15;8.90;;;2.93;;
16137;SDS011;8174;43.550;5.206;2022-11-25T14:50:55;8.10;;;2.87;;
16137;SDS011;8174;43.550;5.206;2022-11-25T14:53:22;7.10;;;2.93;;
16137;SDS011;8174;43.550;5.206;2022-11-25T14:55:52;11.70;;;2.80;;
16137;SDS011;8174;43.550;5.206;2022-11-25T14:58:22;6.63;;;2.90;;
16137;SDS011;8174;43.550;5.206;2022-11-25T15:00:49;9.87;;;2.80;;
16137;SDS011;8174;43.550;5.206;2022-11-25T15:03:18;14.67;;;3.67;;
16137;SDS011;8174;43.550;5.206;2022-11-25T15:05:52;6.80;;;2.60;;
16137;SDS011;8174;43.550;5.206;2022-11-25T15:08:21;10.97;;;3.10;;
16137;SDS011;8174;43.550;5.206;2022-11-25T15:10:50;11.40;;;2.70;;
16137;SDS011;8174;43.550;5.206;2022-11-25T15:13:28;6.77;;;2.67;;
16137;SDS011;8174;43.550;5.206;2022-11-25T15:15:57;6.20;;;3.13;;
16137;SDS011;8174;43.550;5.206;2022-11-25T15:18:26;9.27;;;3.07;;
16137;SDS011;8174;43.550;5.206;2022-11-25T15:20:55;6.37;;;2.20;;
16137;SDS011;8174;43.550;5.206;2022-11-25T15:23:25;4.03;;;2.10;;
16137;SDS011;8174;43.550;5.206;2022-11-25T15:25:56;5.83;;;1.90;;
16137;SDS011;8174;43.550;5.206;2022-11-25T15:28:23;4.37;;;1.90;;
16137;SDS011;8174;43.550;5.206;2022-11-25T15:30:58;11.00;;;2.00;;
16137;SDS011;8174;43.550;5.206;2022-11-25T15:33:27;26.13;;;3.00;;
16137;SDS011;8174;43.550;5.206;2022-11-25T15:35:55;8.87;;;1.90;;
16137;SDS011;8174;43.550;5.206;2022-11-25T15:38:34;6.13;;;1.80;;
16137;SDS011;8174;43.550;5.206;2022-11-25T15:41:02;5.57;;;2.20;;
16137;SDS011;8174;43.550;5.206;2022-11-25T15:43:29;3.73;;;1.80;;
16137;SDS011;8174;43.550;5.206;2022-11-25T15:46:01;7.87;;;2.27;;
16137;SDS011;8174;43.550;5.206;2022-11-25T15:48:29;4.17;;;1.80;;
16137;SDS011;8174;43.550;5.206;2022-11-25T15:50:59;5.20;;;2.37;;
16137;SDS011;8174;43.550;5.206;2022-11-25T15:53:28;3.70;;;1.63;;
16137;SDS011;8174;43.550;5.206;2022-11-25T15:56:01;7.80;;;2.03;;
16137;SDS011;8174;43.550;5.206;2022-11-25T15:58:29;5.73;;;1.67;;
16137;SDS011;8174;43.550;5.206;2022-11-25T16:01:01;10.10;;;2.37;;
16137;SDS011;8174;43.550;5.206;2022-11-25T16:03:30;4.67;;;2.53;;
16137;SDS011;8174;43.550;5.206;2022-11-25T16:05:58;4.90;;;2.23;;
16137;SDS011;8174;43.550;5.206;2022-11-25T16:08:30;3.67;;;2.00;;
16137;SDS011;8174;43.550;5.206;2022-11-25T16:10:58;6.93;;;2.40;;
16137;SDS011;8174;43.550;5.206;2022-11-25T16:13:29;5.20;;;2.27;;
16137;SDS011;8174;43.550;5.206;2022-11-25T16:15:59;4.60;;;2.10;;
16137;SDS011;8174;43.550;5.206;2022-11-25T16:18:30;5.30;;;1.83;;
16137;SDS011;8174;43.550;5.206;2022-11-25T16:21:00;6.80;;;2.13;;